Time;durP1;ratioP1;P1;durP2;ratioP2;P2;SDS_P1;SDS_P2;PMS_P1;PMS_P2;Temp;Humidity;BMP_temperature;BMP_pressure;BME280_temperature;BME280_humidity;BME280_pressure;Samples;Min_cycle;Max_cycle;Signal;HPM_P1;HPM_P2
2023/06/03 00:00:10;;;;;;;3.20;0.32;;;12.20;99.90;;;;;;5035895;28;20499;-77
2023/06/03 00:02:35;;;;;;;2.40;0.10;;;12.20;99.90;;;;;;5035926;28;20017;-77
2023/06/03 00:05:01;;;;;;;3.17;0.17;;;12.10;99.90;;;;;;5035868;28;20027;-77
2023/06/03 00:07:27;;;;;;;1.35;0.50;;;12.00;99.90;;;;;;5035919;28;20025;-77
2023/06/03 00:09:53;;;;;;;2.75;0.30;;;12.10;99.90;;;;;;5035585;28;20025;-77
2023/06/03 00:12:20;;;;;;;3.05;0.20;;;12.10;99.90;;;;;;5035732;28;20094;-77
2023/06/03 00:14:46;;;;;;;1.75;0.47;;;12.00;99.90;;;;;;5035688;28;20484;-77
2023/06/03 00:17:12;;;;;;;1.85;0.30;;;12.10;99.90;;;;;;5053473;28;20025;-76
2023/06/03 00:19:40;;;;;;;4.72;0.50;;;11.90;99.90;;;;;;5052814;28;20059;-76
2023/06/03 00:22:06;;;;;;;4.22;0.30;;;12.10;99.90;;;;;;5035492;28;20104;-77
2023/06/03 00:24:32;;;;;;;4.30;0.73;;;12.10;99.90;;;;;;5053492;28;20132;-77
2023/06/03 00:26:59;;;;;;;2.35;0.68;;;;;;;;;;5053368;28;20063;-76
2023/06/03 00:29:25;;;;;;;3.80;0.75;;;12.00;99.90;;;;;;5053127;28;20033;-76
2023/06/03 00:31:51;;;;;;;8.77;1.13;;;12.00;99.90;;;;;;5035432;28;20029;-77
2023/06/03 00:34:17;;;;;;;2.63;0.70;;;12.00;99.90;;;;;;5053258;28;20032;-77
2023/06/03 00:36:43;;;;;;;4.15;0.20;;;12.00;99.90;;;;;;5053113;28;20408;-77
2023/06/03 00:39:09;;;;;;;4.32;0.70;;;11.90;99.90;;;;;;5034920;28;20024;-77
2023/06/03 00:41:35;;;;;;;2.58;0.65;;;11.90;99.90;;;;;;5035002;28;20017;-77
2023/06/03 00:44:00;;;;;;;1.00;0.25;;;12.00;99.90;;;;;;5053048;28;20399;-76
2023/06/03 00:46:26;;;;;;;2.22;0.28;;;12.00;99.90;;;;;;5035093;28;20021;-76
2023/06/03 00:48:52;;;;;;;7.57;0.50;;;12.00;99.90;;;;;;5053263;28;20475;-76
2023/06/03 00:51:19;;;;;;;6.07;0.20;;;12.00;99.90;;;;;;5035118;28;20111;-76
2023/06/03 00:53:45;;;;;;;2.90;0.43;;;12.00;99.90;;;;;;5052830;28;20028;-77
2023/06/03 00:56:13;;;;;;;1.40;0.70;;;12.70;99.90;;;;;;5052922;28;20112;-76
2023/06/03 00:58:38;;;;;;;4.43;0.52;;;12.00;99.90;;;;;;5052841;28;20025;-76
2023/06/03 01:01:05;;;;;;;1.80;0.30;;;12.10;99.90;;;;;;5053012;28;20025;-77
2023/06/03 01:03:31;;;;;;;3.38;0.20;;;12.00;99.90;;;;;;5052993;28;20033;-77
2023/06/03 01:06:34;;;;;;;6.50;0.75;;;12.80;99.90;;;;;;5052876;28;20025;-77
2023/06/03 01:09:29;;;;;;;5.45;0.65;;;12.10;99.90;;;;;;5042356;28;20029;-76
2023/06/03 01:12:33;;;;;;;2.53;0.55;;;12.00;99.90;;;;;;5053612;28;20477;-75
2023/06/03 01:15:08;;;;;;;3.10;0.15;;;12.00;99.90;;;;;;5034942;28;20480;-74
2023/06/03 01:17:39;;;;;;;2.50;0.68;;;11.90;99.90;;;;;;5034903;28;20021;-74
2023/06/03 01:20:09;;;;;;;1.80;0.57;;;11.90;99.90;;;;;;5034877;28;20476;-75
2023/06/03 01:22:41;;;;;;;2.10;0.50;;;11.90;99.90;;;;;;5052662;28;20048;-75
2023/06/03 01:25:09;;;;;;;5.53;0.65;;;11.90;99.90;;;;;;5034882;28;20032;-75
2023/06/03 01:27:36;;;;;;;2.97;0.40;;;11.80;99.90;;;;;;5053053;28;20013;-75
2023/06/03 01:30:04;;;;;;;4.53;0.52;;;11.80;99.90;;;;;;5052603;28;20442;-75
2023/06/03 01:32:30;;;;;;;3.03;0.73;;;11.70;99.90;;;;;;5038020;28;20021;-75
2023/06/03 01:34:56;;;;;;;3.08;0.20;;;11.70;99.90;;;;;;5056599;28;20021;-75
2023/06/03 01:37:22;;;;;;;3.78;0.60;;;11.70;99.90;;;;;;5056453;28;20025;-75
2023/06/03 01:39:48;;;;;;;2.28;0.10;;;11.70;99.90;;;;;;5056256;28;20032;-75
2023/06/03 01:42:14;;;;;;;3.45;0.70;;;11.70;99.90;;;;;;5056494;28;20021;-76
2023/06/03 01:44:41;;;;;;;0.90;0.63;;;11.60;99.90;;;;;;5038561;28;20499;-76
2023/06/03 01:47:08;;;;;;;4.45;0.50;;;11.60;99.90;;;;;;5056295;28;20029;-76
2023/06/03 01:49:33;;;;;;;3.22;0.60;;;11.50;99.90;;;;;;5038128;28;20488;-76
2023/06/03 01:52:00;;;;;;;8.77;1.88;;;11.50;99.90;;;;;;5056276;28;20032;-76
2023/06/03 01:54:27;;;;;;;1.45;0.43;;;11.50;99.90;;;;;;5055916;28;20052;-76
2023/06/03 01:56:53;;;;;;;4.57;1.30;;;11.50;99.90;;;;;;5038191;28;20029;-75
2023/06/03 01:59:23;;;;;;;1.55;0.55;;;12.10;99.90;;;;;;5056067;28;20021;-76
2023/06/03 02:01:49;;;;;;;1.83;0.68;;;12.70;99.90;;;;;;5056081;28;20025;-75
2023/06/03 02:04:14;;;;;;;2.40;0.63;;;11.40;99.90;;;;;;5056044;28;20024;-76
2023/06/03 02:06:40;;;;;;;4.20;0.45;;;11.30;99.90;;;;;;5056012;28;20032;-76
2023/06/03 02:09:10;;;;;;;5.53;0.65;;;11.30;99.90;;;;;;5055882;28;20166;-76
2023/06/03 02:11:35;;;;;;;3.05;0.63;;;11.20;99.90;;;;;;5037968;28;20029;-76
2023/06/03 02:14:01;;;;;;;2.38;0.95;;;11.20;99.90;;;;;;5037944;28;20036;-75
2023/06/03 02:16:26;;;;;;;3.10;0.63;;;11.10;99.90;;;;;;5055750;28;20488;-75
2023/06/03 02:18:53;;;;;;;2.20;1.27;;;11.10;99.90;;;;;;5055562;28;20507;-76
2023/06/03 02:21:18;;;;;;;3.22;0.55;;;11.10;99.90;;;;;;5055858;28;20013;-76
2023/06/03 02:23:44;;;;;;;3.10;0.60;;;11.10;99.90;;;;;;5055672;28;20099;-76
2023/06/03 02:26:13;;;;;;;9.45;1.10;;;11.10;99.90;;;;;;5056081;28;20053;-76
2023/06/03 02:28:39;;;;;;;6.53;1.00;;;11.10;99.90;;;;;;5055494;28;20112;-75
2023/06/03 02:31:05;;;;;;;1.45;0.52;;;11.10;99.90;;;;;;5055880;28;20056;-75
2023/06/03 02:33:30;;;;;;;2.25;0.50;;;11.00;99.90;;;;;;5055336;28;20033;-75
2023/06/03 02:35:56;;;;;;;2.00;0.55;;;11.00;99.90;;;;;;5037529;28;20070;-74
2023/06/03 02:38:22;;;;;;;2.22;0.57;;;10.90;99.90;;;;;;5055099;28;20021;-74
2023/06/03 02:40:47;;;;;;;4.15;1.00;;;10.90;99.90;;;;;;5037437;28;20655;-74
2023/06/03 02:43:13;;;;;;;1.25;0.63;;;10.90;99.90;;;;;;5054451;28;20143;-75
2023/06/03 02:45:39;;;;;;;3.95;0.73;;;10.90;99.90;;;;;;5037442;28;20477;-75
2023/06/03 02:48:05;;;;;;;4.50;0.88;;;;;;;;;;5054986;28;20025;-75
2023/06/03 02:50:31;;;;;;;3.90;0.70;;;10.90;99.90;;;;;;5037122;28;20029;-75
2023/06/03 02:52:57;;;;;;;6.25;1.23;;;11.40;99.90;;;;;;5055339;28;20033;-75
2023/06/03 02:55:23;;;;;;;6.15;0.80;;;10.80;99.90;;;;;;5054880;28;20017;-75
2023/06/03 02:57:49;;;;;;;1.15;0.63;;;10.80;99.90;;;;;;5055041;28;20032;-76
2023/06/03 03:00:15;;;;;;;5.03;0.70;;;10.80;99.90;;;;;;5037125;28;20411;-76
2023/06/03 03:02:41;;;;;;;2.17;0.93;;;10.80;99.90;;;;;;5037182;28;20143;-77
2023/06/03 03:05:07;;;;;;;5.22;0.70;;;11.30;99.90;;;;;;5055114;28;20056;-77
2023/06/03 03:07:36;;;;;;;2.53;0.88;;;10.70;99.90;;;;;;5054680;28;20101;-76
2023/06/03 03:10:03;;;;;;;6.88;1.00;;;10.70;99.90;;;;;;5054703;28;20389;-76
2023/06/03 03:12:29;;;;;;;2.72;0.60;;;10.70;99.90;;;;;;5054843;28;20090;-77
2023/06/03 03:14:55;;;;;;;2.55;1.25;;;10.70;99.90;;;;;;5054816;28;20017;-76
2023/06/03 03:17:20;;;;;;;3.55;1.30;;;10.70;99.90;;;;;;5054874;28;20100;-76
2023/06/03 03:19:46;;;;;;;4.75;0.57;;;10.60;99.90;;;;;;5036853;28;20033;-76
2023/06/03 03:22:12;;;;;;;6.55;0.80;;;10.60;99.90;;;;;;5054555;28;20114;-76
2023/06/03 03:24:37;;;;;;;2.38;0.88;;;10.60;99.90;;;;;;5054558;28;20072;-75
2023/06/03 03:27:03;;;;;;;1.60;0.55;;;10.60;99.90;;;;;;5036683;28;20017;-77
2023/06/03 03:29:29;;;;;;;4.70;0.68;;;10.60;99.90;;;;;;5036614;28;20036;-77
2023/06/03 03:32:06;;;;;;;3.35;0.60;;;10.50;99.90;;;;;;5054775;28;20060;-76
2023/06/03 03:34:32;;;;;;;4.05;1.05;;;10.50;99.90;;;;;;5054692;28;20028;-76
2023/06/03 03:36:58;;;;;;;3.55;0.52;;;10.50;99.90;;;;;;5054235;28;20021;-76
2023/06/03 03:39:24;;;;;;;3.00;0.45;;;10.50;99.90;;;;;;5054374;28;20028;-76
2023/06/03 03:41:50;;;;;;;3.95;0.95;;;10.50;99.90;;;;;;5054283;28;20069;-76
2023/06/03 03:44:15;;;;;;;3.67;0.60;;;10.40;99.90;;;;;;5054162;28;20084;-75
2023/06/03 03:46:53;;;;;;;3.08;0.65;;;10.40;99.90;;;;;;5036261;28;20021;-75
2023/06/03 03:49:28;;;;;;;7.50;0.45;;;10.40;99.90;;;;;;5036255;28;20031;-75
2023/06/03 03:51:54;;;;;;;4.10;0.70;;;10.40;99.90;;;;;;5036304;28;20443;-75
2023/06/03 03:54:24;;;;;;;3.83;1.00;;;10.40;99.90;;;;;;5036301;28;20131;-76
2023/06/03 03:56:54;;;;;;;2.47;0.40;;;11.90;99.90;;;;;;5053923;28;20083;-75
2023/06/03 03:59:20;;;;;;;1.48;0.30;;;10.50;99.90;;;;;;5054187;28;20021;-76
2023/06/03 04:01:45;;;;;;;2.03;0.43;;;10.40;99.90;;;;;;5054258;28;20063;-76
2023/06/03 04:04:18;;;;;;;1.48;0.40;;;11.60;99.90;;;;;;5036063;28;20029;-75
2023/06/03 04:06:43;;;;;;;5.80;0.40;;;10.50;99.90;;;;;;5036016;28;20476;-75
2023/06/03 04:09:13;;;;;;;3.85;0.45;;;10.50;99.90;;;;;;5035961;28;20021;-75
2023/06/03 04:11:44;;;;;;;3.83;0.70;;;11.90;99.90;;;;;;5054080;28;20025;-74
2023/06/03 04:14:11;;;;;;;4.10;0.52;;;10.60;99.90;;;;;;5053927;28;20131;-74
2023/06/03 04:16:55;;;;;;;4.22;0.85;;;10.70;99.90;;;;;;5053362;28;20446;-75
2023/06/03 04:19:30;;;;;;;5.50;0.35;;;10.70;99.90;;;;;;5035527;28;20118;-76
2023/06/03 04:21:57;;;;;;;2.95;1.10;;;10.80;99.90;;;;;;5035611;28;20048;-75
2023/06/03 04:24:24;;;;;;;2.53;0.40;;;10.80;99.90;;;;;;5053378;28;20025;-76
2023/06/03 04:26:49;;;;;;;5.50;0.40;;;10.80;99.90;;;;;;5053414;28;20040;-76
2023/06/03 04:29:15;;;;;;;2.00;0.57;;;12.50;99.90;;;;;;5053216;28;20013;-76
2023/06/03 04:31:41;;;;;;;2.05;0.60;;;10.90;99.90;;;;;;5053348;28;20107;-76
2023/06/03 04:34:07;;;;;;;2.35;0.60;;;11.00;99.90;;;;;;5035502;28;20064;-76
2023/06/03 04:36:32;;;;;;;1.10;0.32;;;11.00;99.90;;;;;;5053139;28;20391;-74
2023/06/03 04:39:01;;;;;;;1.27;0.20;;;11.10;99.90;;;;;;5053015;28;20041;-75
2023/06/03 04:41:32;;;;;;;3.03;0.30;;;11.20;99.90;;;;;;5053268;28;20027;-76
2023/06/03 04:43:59;;;;;;;3.13;0.30;;;12.50;99.90;;;;;;5053323;28;20025;-76
2023/06/03 04:46:29;;;;;;;0.73;0.20;;;11.30;99.90;;;;;;5035367;28;20484;-75
2023/06/03 04:48:55;;;;;;;3.75;0.40;;;11.30;99.90;;;;;;5035249;28;20028;-75
2023/06/03 04:51:22;;;;;;;2.08;0.22;;;11.40;99.90;;;;;;5035186;28;20033;-75
2023/06/03 04:53:48;;;;;;;1.45;0.80;;;11.50;99.90;;;;;;5052968;28;20049;-75
2023/06/03 04:56:14;;;;;;;1.05;0.10;;;11.50;99.90;;;;;;5035137;28;20029;-75
2023/06/03 04:58:40;;;;;;;2.83;0.30;;;11.60;99.90;;;;;;5052920;28;20032;-76
2023/06/03 05:01:08;;;;;;;1.35;0.40;;;11.70;99.90;;;;;;5052991;28;20032;-75
2023/06/03 05:03:38;;;;;;;2.17;0.80;;;11.80;99.90;;;;;;5053075;28;20107;-75
2023/06/03 05:06:10;;;;;;;4.18;0.10;;;11.90;99.90;;;;;;5054138;28;20029;-75
2023/06/03 05:08:37;;;;;;;1.70;0.00;;;11.90;99.90;;;;;;5056951;28;20021;-75
2023/06/03 05:11:03;;;;;;;2.30;0.10;;;12.00;99.90;;;;;;5057026;28;20095;-77
2023/06/03 05:13:29;;;;;;;1.50;0.20;;;12.00;99.90;;;;;;5058469;28;20029;-77
2023/06/03 05:15:54;;;;;;;2.50;0.10;;;12.10;99.90;;;;;;5056913;28;20099;-77
2023/06/03 05:18:20;;;;;;;1.02;0.20;;;12.30;99.90;;;;;;5056629;28;20029;-77
2023/06/03 05:20:46;;;;;;;5.70;0.28;;;12.30;99.90;;;;;;5056802;28;20100;-77
2023/06/03 05:23:11;;;;;;;1.15;0.10;;;12.40;99.90;;;;;;5038924;28;20110;-77
2023/06/03 05:25:37;;;;;;;3.22;0.30;;;12.40;99.90;;;;;;5056703;28;20393;-77
2023/06/03 05:28:03;;;;;;;1.92;0.35;;;12.60;99.90;;;;;;5038774;28;20082;-77
2023/06/03 05:30:28;;;;;;;1.55;0.13;;;12.60;99.90;;;;;;5038689;28;20029;-77
2023/06/03 05:32:54;;;;;;;2.10;0.10;;;12.70;99.90;;;;;;5056436;28;20100;-77
2023/06/03 05:35:19;;;;;;;0.80;0.15;;;13.50;99.90;;;;;;5057103;28;20025;-77
2023/06/03 05:37:45;;;;;;;2.90;0.10;;;13.70;99.90;;;;;;5038749;28;20017;-77
2023/06/03 05:40:11;;;;;;;0.93;0.20;;;13.00;99.90;;;;;;5056441;28;20025;-77
2023/06/03 05:42:36;;;;;;;1.63;0.15;;;13.10;99.90;;;;;;5038665;28;20024;-77
2023/06/03 05:45:03;;;;;;;1.02;0.10;;;13.20;99.90;;;;;;5038586;28;20023;-77
2023/06/03 05:47:29;;;;;;;1.55;0.20;;;13.40;99.90;;;;;;5056289;28;20029;-77
2023/06/03 05:49:54;;;;;;;1.55;0.60;;;13.40;99.90;;;;;;5056221;28;20064;-77
2023/06/03 05:52:20;;;;;;;2.15;0.50;;;13.50;99.90;;;;;;5056292;28;20091;-77
2023/06/03 05:54:46;;;;;;;0.50;0.10;;;14.00;99.90;;;;;;5038044;28;20029;-77
2023/06/03 05:57:11;;;;;;;0.43;0.03;;;13.70;99.90;;;;;;5038277;28;20099;-77
2023/06/03 05:59:37;;;;;;;3.05;0.00;;;13.80;99.90;;;;;;5056619;28;20028;-77
2023/06/03 06:02:03;;;;;;;2.88;0.40;;;14.00;99.90;;;;;;5038367;28;20434;-77
2023/06/03 06:04:28;;;;;;;0.98;0.10;;;14.00;99.90;;;;;;5056098;28;20124;-76
2023/06/03 06:06:54;;;;;;;0.43;0.20;;;14.10;99.90;;;;;;5037878;28;20025;-76
2023/06/03 06:09:20;;;;;;;1.60;0.00;;;14.20;99.90;;;;;;5055825;28;20434;-77
2023/06/03 06:11:45;;;;;;;3.03;0.47;;;14.30;99.90;;;;;;5055738;28;20029;-76
2023/06/03 06:14:12;;;;;;;1.38;0.00;;;14.60;99.90;;;;;;5037777;28;20067;-77
2023/06/03 06:16:37;;;;;;;1.20;0.10;;;14.70;99.90;;;;;;5056159;28;20029;-77
2023/06/03 06:19:03;;;;;;;0.73;0.10;;;14.80;99.90;;;;;;5054598;28;20031;-77
2023/06/03 06:21:29;;;;;;;0.32;0.00;;;14.90;99.90;;;;;;5037937;28;20109;-77
2023/06/03 06:23:55;;;;;;;0.85;0.00;;;15.00;99.90;;;;;;5037974;28;20055;-77
2023/06/03 06:26:21;;;;;;;0.73;0.15;;;15.10;99.90;;;;;;5055661;28;20021;-77
2023/06/03 06:28:47;;;;;;;3.42;0.63;;;15.30;99.90;;;;;;5037822;28;20033;-77
2023/06/03 06:31:15;;;;;;;1.63;0.00;;;15.30;99.90;;;;;;5055696;28;20389;-77
2023/06/03 06:33:47;;;;;;;1.00;0.30;;;15.40;99.90;;;;;;5055677;28;20029;-77
2023/06/03 06:36:29;;;;;;;1.30;0.00;;;15.50;99.90;;;;;;5055674;28;20021;-77
2023/06/03 06:38:56;;;;;;;1.08;0.10;;;15.80;99.90;;;;;;5055251;28;20545;-77
2023/06/03 06:41:22;;;;;;;3.72;0.63;;;15.80;99.90;;;;;;5037635;28;20013;-77
2023/06/03 06:43:47;;;;;;;1.25;0.20;;;15.90;99.90;;;;;;5037791;28;20506;-77
2023/06/03 06:46:13;;;;;;;0.03;0.00;;;16.10;99.90;;;;;;5055542;28;20506;-77
2023/06/03 06:48:41;;;;;;;0.82;0.05;;;16.20;99.90;;;;;;5055318;28;20492;-77
2023/06/03 06:51:07;;;;;;;1.13;0.00;;;16.20;99.90;;;;;;5037220;28;20021;-77
2023/06/03 06:53:35;;;;;;;2.20;0.00;;;16.30;99.90;;;;;;5054957;28;20031;-76
2023/06/03 06:56:08;;;;;;;2.90;0.08;;;16.40;99.90;;;;;;5055064;28;20025;-77
2023/06/03 06:58:35;;;;;;;1.85;0.00;;;16.60;99.00;;;;;;5036976;28;20504;-77
2023/06/03 07:01:05;;;;;;;1.17;0.00;;;16.70;99.40;;;;;;5037031;28;20017;-77
2023/06/03 07:03:31;;;;;;;1.00;0.10;;;16.90;98.40;;;;;;5055131;28;20136;-77
2023/06/03 07:05:57;;;;;;;0.43;0.00;;;16.90;98.90;;;;;;5036889;28;20037;-77
2023/06/03 07:08:23;;;;;;;1.10;0.00;;;17.00;97.00;;;;;;5054870;28;20116;-77
2023/06/03 07:10:50;;;;;;;0.57;0.00;;;17.10;97.20;;;;;;5054895;28;20021;-76
2023/06/03 07:13:16;;;;;;;2.15;0.00;;;17.20;97.00;;;;;;5054628;28;20097;-77
2023/06/03 07:15:42;;;;;;;1.45;0.30;;;17.80;96.20;;;;;;5055232;28;20610;-77
2023/06/03 07:18:09;;;;;;;11.75;0.17;;;17.50;95.20;;;;;;5055253;28;20040;-77
2023/06/03 07:20:47;;;;;;;0.60;0.00;;;17.60;94.60;;;;;;5055010;28;20017;-76
2023/06/03 07:23:21;;;;;;;3.37;0.43;;;17.60;94.70;;;;;;5054565;28;20033;-77
2023/06/03 07:25:52;;;;;;;3.47;0.03;;;17.90;93.00;;;;;;5036540;28;20033;-76
2023/06/03 07:28:33;;;;;;;2.05;0.10;;;18.00;93.40;;;;;;5036399;28;20029;-77
2023/06/03 07:31:05;;;;;;;1.45;0.10;;;18.20;91.80;;;;;;5036182;28;20100;-77
2023/06/03 07:33:37;;;;;;;1.70;0.08;;;18.20;92.10;;;;;;5054466;28;20036;-74
2023/06/03 07:36:03;;;;;;;0.30;0.10;;;18.40;92.10;;;;;;5054258;28;20029;-74
2023/06/03 07:38:38;;;;;;;1.27;0.00;;;18.30;92.20;;;;;;5054166;28;20017;-74
2023/06/03 07:41:08;;;;;;;3.10;0.08;;;18.50;90.40;;;;;;5036300;28;20025;-74
2023/06/03 07:43:36;;;;;;;0.20;0.10;;;18.60;90.20;;;;;;5054151;28;20021;-75
2023/06/03 07:46:05;;;;;;;1.63;0.00;;;18.80;86.10;;;;;;5054099;28;20103;-74
2023/06/03 07:48:33;;;;;;;4.97;0.35;;;18.80;86.70;;;;;;5053816;28;20024;-74
2023/06/03 07:50:58;;;;;;;0.10;0.00;;;18.90;86.70;;;;;;5053997;28;20029;-74
2023/06/03 07:53:25;;;;;;;0.65;0.10;;;19.00;85.90;;;;;;5036030;28;20029;-74
2023/06/03 07:55:51;;;;;;;2.17;0.13;;;19.20;83.30;;;;;;5053933;28;20082;-74
2023/06/03 07:58:17;;;;;;;0.40;0.00;;;19.40;79.20;;;;;;5035842;28;20051;-74
2023/06/03 08:00:50;;;;;;;1.38;0.10;;;19.30;80.10;;;;;;5036120;28;20480;-74
2023/06/03 08:03:18;;;;;;;2.28;0.03;;;19.50;78.70;;;;;;5053751;28;20059;-74
2023/06/03 08:05:46;;;;;;;0.75;0.20;;;19.50;76.20;;;;;;5035801;28;20485;-74
2023/06/03 08:08:13;;;;;;;1.75;0.00;;;19.70;75.60;;;;;;5035731;28;20074;-74
2023/06/03 08:10:40;;;;;;;2.08;0.00;;;19.80;76.20;;;;;;5053564;28;20388;-74
2023/06/03 08:13:06;;;;;;;0.77;0.15;;;19.90;73.20;;;;;;5053713;28;20075;-74
2023/06/03 08:15:35;;;;;;;1.27;0.00;;;20.00;72.90;;;;;;5053500;28;20033;-74
2023/06/03 08:18:05;;;;;;;1.00;0.00;;;20.10;70.90;;;;;;5053464;28;20025;-74
2023/06/03 08:20:33;;;;;;;1.02;0.00;;;20.10;68.90;;;;;;5035971;28;20025;-74
2023/06/03 08:22:59;;;;;;;3.85;0.00;;;20.20;67.40;;;;;;5053559;28;20499;-74
2023/06/03 08:25:27;;;;;;;1.48;0.10;;;20.30;66.80;;;;;;5053659;28;20496;-74
2023/06/03 08:27:53;;;;;;;0.25;0.00;;;20.40;66.70;;;;;;5053257;28;20017;-74
2023/06/03 08:30:20;;;;;;;2.15;0.00;;;20.50;68.20;;;;;;5035532;28;20029;-74
2023/06/03 08:32:46;;;;;;;1.08;0.00;;;20.60;66.20;;;;;;5035386;28;20031;-74
2023/06/03 08:35:14;;;;;;;0.73;0.22;;;20.60;66.40;;;;;;5053296;28;20017;-74
2023/06/03 08:37:40;;;;;;;0.82;0.00;;;20.80;66.70;;;;;;5053441;28;20391;-74
2023/06/03 08:40:11;;;;;;;4.25;0.00;;;20.90;64.70;;;;;;5035597;28;20024;-75
2023/06/03 08:42:41;;;;;;;0.10;0.00;;;20.90;64.80;;;;;;5052787;28;20024;-74
2023/06/03 08:45:12;;;;;;;0.25;0.00;;;21.10;64.70;;;;;;5035350;28;20024;-74
2023/06/03 08:47:54;;;;;;;0.80;0.00;;;21.10;62.50;;;;;;5053135;28;20480;-74
2023/06/03 08:50:22;;;;;;;2.03;0.00;;;21.20;62.70;;;;;;5035381;28;20025;-74
2023/06/03 08:52:50;;;;;;;2.17;0.00;;;21.20;60.10;;;;;;5053174;28;20013;-75
2023/06/03 08:55:17;;;;;;;0.13;0.00;;;21.20;61.50;;;;;;5053246;28;20017;-75
2023/06/03 08:57:51;;;;;;;5.20;0.10;;;21.30;60.70;;;;;;5035091;28;20056;-74
2023/06/03 09:00:26;;;;;;;0.68;0.08;;;21.30;61.50;;;;;;5053609;28;20053;-74
2023/06/03 09:02:52;;;;;;;0.47;0.20;;;21.40;60.80;;;;;;5053518;28;20017;-74
2023/06/03 09:05:20;;;;;;;0.28;0.00;;;21.40;60.70;;;;;;5052987;28;20426;-75
2023/06/03 09:07:47;;;;;;;0.70;0.22;;;21.50;61.50;;;;;;5035201;28;20365;-76
2023/06/03 09:10:15;;;;;;;0.08;0.00;;;21.50;60.10;;;;;;5052869;28;20116;-76
2023/06/03 09:12:42;;;;;;;2.67;0.20;;;21.50;60.60;;;;;;5052839;28;20045;-76
2023/06/03 09:15:10;;;;;;;1.35;0.00;;;21.50;58.80;;;;;;5035106;28;20028;-76
2023/06/03 09:17:36;;;;;;;2.78;0.00;;;21.50;58.70;;;;;;5052896;28;20399;-76
2023/06/03 09:20:04;;;;;;;1.35;0.00;;;21.50;58.50;;;;;;5052769;28;20021;-76
2023/06/03 09:22:30;;;;;;;0.43;0.00;;;21.60;57.60;;;;;;5052844;28;20043;-76
2023/06/03 09:24:56;;;;;;;0.77;0.00;;;21.70;58.40;;;;;;5052756;28;20021;-76
2023/06/03 09:27:22;;;;;;;0.95;0.00;;;21.80;57.20;;;;;;5035094;28;20033;-76
2023/06/03 09:29:47;;;;;;;3.63;0.10;;;21.80;57.00;;;;;;5052649;28;20524;-76
2023/06/03 09:32:13;;;;;;;0.52;0.00;;;21.80;57.10;;;;;;5053294;28;20035;-76
2023/06/03 09:34:42;;;;;;;2.17;0.22;;;21.80;56.10;;;;;;5034997;28;20025;-75
2023/06/03 09:37:10;;;;;;;;;;;21.90;57.40;;;;;;5053104;28;20546;-76
2023/06/03 09:39:36;;;;;;;;;;;22.00;56.40;;;;;;5053089;28;19911;-75
2023/06/03 09:42:03;;;;;;;0.10;0.00;;;22.10;56.90;;;;;;5034910;28;19962;-75
2023/06/03 09:44:42;;;;;;;0.05;0.05;;;22.20;55.20;;;;;;5052566;28;20085;-74
2023/06/03 09:47:09;;;;;;;0.85;0.00;;;22.20;55.40;;;;;;5053045;28;20048;-74
2023/06/03 09:49:35;;;;;;;0.38;0.08;;;22.20;55.30;;;;;;5052647;28;20082;-75
2023/06/03 09:52:03;;;;;;;1.40;0.20;;;;;;;;;;5053646;28;20033;-75
2023/06/03 09:54:29;;;;;;;3.10;0.00;;;22.30;55.10;;;;;;5056442;28;20048;-74
2023/06/03 09:57:10;;;;;;;3.35;0.00;;;22.40;54.90;;;;;;5038453;28;20017;-75
2023/06/03 09:59:35;;;;;;;1.15;0.10;;;22.50;53.60;;;;;;5056301;28;20432;-75
2023/06/03 10:02:01;;;;;;;0.00;0.00;;;22.60;54.70;;;;;;5056187;28;20017;-75
2023/06/03 10:04:44;;;;;;;0.25;0.00;;;22.70;54.70;;;;;;5056379;28;20481;-75
2023/06/03 10:07:11;;;;;;;0.10;0.00;;;22.80;54.60;;;;;;5056255;28;20025;-74
2023/06/03 10:09:37;;;;;;;2.95;0.00;;;22.90;54.00;;;;;;5037871;28;20017;-74
2023/06/03 10:12:04;;;;;;;2.45;0.08;;;22.90;54.10;;;;;;5038116;28;20025;-74
2023/06/03 10:14:29;;;;;;;0.10;0.00;;;23.00;54.30;;;;;;5055757;28;20048;-74
2023/06/03 10:17:09;;;;;;;1.65;0.00;;;23.20;54.40;;;;;;5037433;28;20484;-74
2023/06/03 10:19:36;;;;;;;1.00;0.00;;;23.40;54.10;;;;;;5037630;28;20029;-74
2023/06/03 10:22:03;;;;;;;0.80;0.00;;;23.40;52.10;;;;;;5055651;28;20025;-74
2023/06/03 10:24:31;;;;;;;1.88;0.00;;;23.50;52.30;;;;;;5055648;28;20025;-74
2023/06/03 10:26:57;;;;;;;0.28;0.00;;;23.40;52.40;;;;;;5055765;28;20053;-74
2023/06/03 10:29:25;;;;;;;0.50;0.03;;;23.50;52.20;;;;;;5055671;28;20136;-74
2023/06/03 10:31:53;;;;;;;10.30;0.10;;;23.60;52.10;;;;;;5055625;28;20388;-74
2023/06/03 10:34:19;;;;;;;;;;;23.70;54.00;;;;;;5037959;28;20029;-74
2023/06/03 10:36:51;;;;;;;2.15;0.10;;;24.00;49.90;;;;;;5037502;28;19948;-74
2023/06/03 10:39:17;;;;;;;2.15;0.00;;;23.90;50.40;;;;;;5037729;28;20024;-74
2023/06/03 10:41:44;;;;;;;0.85;0.00;;;24.10;51.10;;;;;;5055918;28;20032;-74
2023/06/03 10:44:09;;;;;;;0.25;0.00;;;24.10;51.10;;;;;;5037490;28;20549;-74
2023/06/03 10:46:57;;;;;;;0.55;0.00;;;24.10;50.20;;;;;;5055396;28;20025;-74
2023/06/03 10:49:26;;;;;;;0.30;0.00;;;24.10;49.70;;;;;;5055125;28;20083;-74
2023/06/03 10:52:10;;;;;;;0.32;0.00;;;24.30;50.00;;;;;;5055188;28;20072;-74
2023/06/03 10:54:51;;;;;;;0.45;0.00;;;24.50;48.30;;;;;;5055317;28;20025;-74
2023/06/03 10:57:21;;;;;;;0.68;0.00;;;24.50;48.30;;;;;;5037135;28;20484;-74
2023/06/03 10:59:48;;;;;;;0.10;0.00;;;24.50;49.30;;;;;;5037002;28;20028;-74
2023/06/03 11:02:14;;;;;;;0.00;0.00;;;24.50;48.70;;;;;;5054634;28;20048;-74
2023/06/03 11:04:40;;;;;;;0.55;0.00;;;24.70;48.20;;;;;;5036185;28;20075;-74
2023/06/03 11:07:27;;;;;;;0.35;0.00;;;24.90;46.50;;;;;;5037004;28;20017;-74
2023/06/03 11:09:54;;;;;;;0.10;0.00;;;25.00;48.90;;;;;;5036539;28;20106;-74
2023/06/03 11:12:20;;;;;;;1.00;0.00;;;25.30;47.30;;;;;;5054736;28;20013;-75
2023/06/03 11:14:48;;;;;;;0.38;0.00;;;25.40;47.40;;;;;;5036694;28;20028;-75
2023/06/03 11:17:21;;;;;;;;;;;25.50;46.60;;;;;;5055434;28;20450;-75
2023/06/03 11:19:49;;;;;;;0.52;0.00;;;25.70;45.60;;;;;;5054531;28;19923;-75
2023/06/03 11:22:29;;;;;;;0.03;0.00;;;26.00;43.80;;;;;;5036633;28;20021;-75
2023/06/03 11:24:56;;;;;;;0.10;0.00;;;26.10;43.40;;;;;;5054594;28;20029;-75
2023/06/03 11:27:23;;;;;;;1.45;0.00;;;26.20;42.70;;;;;;5036540;28;20029;-75
2023/06/03 11:29:49;;;;;;;1.05;0.00;;;26.30;43.40;;;;;;5036565;28;20108;-75
2023/06/03 11:32:21;;;;;;;1.30;0.00;;;26.40;43.00;;;;;;5036556;28;20045;-75
2023/06/03 11:34:49;;;;;;;0.05;0.00;;;26.50;42.80;;;;;;5054343;28;20033;-75
2023/06/03 11:37:20;;;;;;;0.32;0.00;;;26.50;43.20;;;;;;5036534;28;20366;-75
2023/06/03 11:40:08;;;;;;;1.77;0.00;;;26.60;42.70;;;;;;5054302;28;20077;-75
2023/06/03 11:42:51;;;;;;;0.00;0.00;;;26.80;42.50;;;;;;5036503;28;20028;-75
2023/06/03 11:45:17;;;;;;;0.10;0.00;;;26.90;41.80;;;;;;5054210;28;20392;-75
2023/06/03 11:47:56;;;;;;;0.00;0.00;;;27.10;40.70;;;;;;5054068;28;20126;-75
2023/06/03 11:50:33;;;;;;;2.20;0.00;;;27.10;40.00;;;;;;5054052;28;20484;-75
2023/06/03 11:52:58;;;;;;;0.10;0.05;;;27.10;38.40;;;;;;5036166;28;20536;-76
2023/06/03 11:55:32;;;;;;;0.00;0.00;;;27.20;39.90;;;;;;5054040;28;20100;-74
2023/06/03 11:58:22;;;;;;;1.30;0.22;;;27.30;39.20;;;;;;5053916;28;20025;-74
2023/06/03 12:00:48;;;;;;;0.00;0.00;;;27.30;38.50;;;;;;5052367;28;20477;-74
2023/06/03 12:03:14;;;;;;;0.75;0.10;;;27.50;38.80;;;;;;5051969;28;20111;-75
2023/06/03 12:05:54;;;;;;;0.68;0.00;;;27.60;39.80;;;;;;5034726;28;20071;-74
2023/06/03 12:08:19;;;;;;;2.65;0.00;;;27.60;40.20;;;;;;5035119;28;20029;-74
2023/06/03 12:10:45;;;;;;;0.10;0.00;;;27.60;40.90;;;;;;5052604;28;20025;-75
2023/06/03 12:13:10;;;;;;;0.00;0.00;;;27.80;41.00;;;;;;5035795;28;20110;-75
2023/06/03 12:15:47;;;;;;;0.70;0.00;;;28.00;41.50;;;;;;5052968;28;20388;-74
2023/06/03 12:18:12;;;;;;;0.10;0.00;;;28.00;40.40;;;;;;5035683;28;20372;-75
2023/06/03 12:20:38;;;;;;;0.30;0.00;;;28.00;41.10;;;;;;5035682;28;20051;-74
2023/06/03 12:23:05;;;;;;;3.83;0.55;;;28.00;39.50;;;;;;5053544;28;20017;-75
2023/06/03 12:25:34;;;;;;;1.20;0.00;;;28.20;39.00;;;;;;5053490;28;20100;-75
2023/06/03 12:28:28;;;;;;;1.25;0.00;;;28.30;38.60;;;;;;5053325;28;20031;-74
2023/06/03 12:30:54;;;;;;;3.42;0.00;;;28.20;38.40;;;;;;5035613;28;20013;-75
2023/06/03 12:33:20;;;;;;;1.10;0.00;;;28.40;38.90;;;;;;5035453;28;20040;-75
2023/06/03 12:35:53;;;;;;;0.03;0.00;;;28.60;38.80;;;;;;5053355;28;20017;-74
2023/06/03 12:38:19;;;;;;;0.25;0.00;;;28.90;37.70;;;;;;5053148;28;20044;-74
2023/06/03 12:40:45;;;;;;;0.25;0.00;;;29.00;38.10;;;;;;5035310;28;20060;-75
2023/06/03 12:43:21;;;;;;;1.55;0.00;;;29.00;37.80;;;;;;5053264;28;20028;-74
2023/06/03 12:45:47;;;;;;;0.00;0.00;;;29.30;37.10;;;;;;5053191;28;20021;-75
2023/06/03 12:48:30;;;;;;;0.03;0.00;;;29.80;36.70;;;;;;5035246;28;20052;-75
2023/06/03 12:50:56;;;;;;;1.35;0.00;;;29.70;37.10;;;;;;5053098;28;20025;-74
2023/06/03 12:53:21;;;;;;;1.75;0.00;;;29.40;36.00;;;;;;5035130;28;20032;-74